createdAt,value
2019-02-18T00:01:55.295Z,38.38
2019-02-18T00:03:57.138Z,32.90
2019-02-18T00:05:59.069Z,38.60
2019-02-18T00:08:00.800Z,38.20
2019-02-18T00:10:03.009Z,39.07
2019-02-18T00:12:05.089Z,38.07
2019-02-18T00:14:06.817Z,36.25
2019-02-18T00:16:08.737Z,38.63
2019-02-18T00:18:10.779Z,34.60
2019-02-18T00:20:12.614Z,36.30
2019-02-18T00:22:14.357Z,33.27
2019-02-18T00:24:16.108Z,35.05
2019-02-18T00:26:18.360Z,37.30
2019-02-18T00:28:20.194Z,39.27
2019-02-18T00:30:22.064Z,42.13
2019-02-18T00:32:23.790Z,35.50
2019-02-18T00:34:25.555Z,37.80
2019-02-18T00:36:27.304Z,33.97
2019-02-18T00:38:29.033Z,35.92
2019-02-18T00:40:30.861Z,33.60
2019-02-18T00:42:32.765Z,35.85
2019-02-18T00:44:34.513Z,36.53
2019-02-18T00:46:36.249Z,37.33
2019-02-18T00:48:38.033Z,37.90
2019-02-18T00:50:39.892Z,34.38
2019-02-18T00:52:41.629Z,33.73
2019-02-18T00:54:43.401Z,33.45
2019-02-18T00:56:45.162Z,40.28
2019-02-18T00:58:46.916Z,39.35
2019-02-18T01:00:48.721Z,32.65
2019-02-18T01:02:50.472Z,35.73
2019-02-18T01:04:52.316Z,39.30
2019-02-18T01:06:54.096Z,36.90
2019-02-18T01:08:56.109Z,36.30
2019-02-18T01:10:57.836Z,34.13
2019-02-18T01:12:59.603Z,35.52
2019-02-18T01:15:01.346Z,42.05
2019-02-18T01:17:03.346Z,41.65
2019-02-18T01:19:05.129Z,37.03
2019-02-18T01:21:06.887Z,35.33
2019-02-18T01:23:08.647Z,40.35
2019-02-18T01:25:10.997Z,39.42
2019-02-18T01:27:12.741Z,33.40
2019-02-18T01:29:14.489Z,38.98
2019-02-18T01:31:16.229Z,36.15
2019-02-18T01:33:17.985Z,37.08
2019-02-18T01:35:19.718Z,36.05
2019-02-18T01:37:21.456Z,37.30
2019-02-18T01:39:23.412Z,37.28
2019-02-18T01:41:25.148Z,35.48
2019-02-18T01:43:26.890Z,36.28
2019-02-18T01:45:28.646Z,39.88
2019-02-18T01:47:30.403Z,37.75
2019-02-18T01:49:32.185Z,38.48
2019-02-18T01:51:34.044Z,36.03
2019-02-18T01:53:35.821Z,35.13
2019-02-18T01:55:37.600Z,34.65
2019-02-18T01:57:39.608Z,34.00
2019-02-18T01:59:41.357Z,32.28
2019-02-18T02:01:43.140Z,37.35
2019-02-18T02:03:44.882Z,34.83
2019-02-18T02:05:46.633Z,40.85
2019-02-18T02:07:55.847Z,43.45
2019-02-18T02:09:52.405Z,42.35
2019-02-18T02:11:54.173Z,37.03
2019-02-18T02:13:55.968Z,33.80
2019-02-18T02:15:58.649Z,35.88
2019-02-18T02:18:00.381Z,36.90
2019-02-18T02:20:02.568Z,36.93
2019-02-18T02:22:04.313Z,37.63
2019-02-18T02:24:06.066Z,38.08
2019-02-18T02:26:07.825Z,39.40
2019-02-18T02:28:09.572Z,35.78
2019-02-18T02:30:11.599Z,38.30
2019-02-18T02:32:13.514Z,39.05
2019-02-18T02:34:15.259Z,33.83
2019-02-18T02:36:17.017Z,35.05
2019-02-18T02:38:18.944Z,38.80
2019-02-18T02:40:20.783Z,39.05
2019-02-18T02:42:22.533Z,34.50
2019-02-18T02:44:24.846Z,34.70
2019-02-18T02:46:26.601Z,35.17
2019-02-18T02:48:28.360Z,38.15
2019-02-18T02:50:30.117Z,37.80
2019-02-18T02:52:31.849Z,35.35
2019-02-18T02:54:33.717Z,34.43
2019-02-18T02:56:37.351Z,31.73
2019-02-18T02:58:39.267Z,36.73
2019-02-18T03:00:41.252Z,36.60
2019-02-18T03:02:43.018Z,33.23
2019-02-18T03:04:44.769Z,34.27
2019-02-18T03:06:46.499Z,35.17
2019-02-18T03:08:48.370Z,35.68
2019-02-18T03:10:50.092Z,32.17
2019-02-18T03:12:51.809Z,37.28
2019-02-18T03:14:53.659Z,34.08
2019-02-18T03:16:55.391Z,35.78
2019-02-18T03:18:57.144Z,40.28
2019-02-18T03:20:58.897Z,35.75
2019-02-18T03:23:00.734Z,36.08
2019-02-18T03:25:21.611Z,35.55
2019-02-18T03:27:23.390Z,33.83
2019-02-18T03:30:08.993Z,36.42
2019-02-18T03:32:10.864Z,33.20
2019-02-18T03:34:26.103Z,35.55
2019-02-18T03:36:27.864Z,34.18
2019-02-18T03:38:31.934Z,31.42
2019-02-18T03:40:33.517Z,35.68
2019-02-18T03:42:35.370Z,35.90
2019-02-18T03:44:37.343Z,33.55
2019-02-18T03:46:39.081Z,33.63
2019-02-18T03:48:40.810Z,32.05
2019-02-18T03:50:42.690Z,34.20
2019-02-18T03:52:44.406Z,35.23
2019-02-18T03:54:46.513Z,33.78
2019-02-18T03:56:48.354Z,30.23
2019-02-18T03:58:50.130Z,36.85
2019-02-18T04:00:52.086Z,34.27
2019-02-18T04:02:53.818Z,30.97
2019-02-18T04:04:55.657Z,33.63
2019-02-18T04:06:57.415Z,36.28
2019-02-18T04:08:59.154Z,34.95
2019-02-18T04:11:00.860Z,32.55
2019-02-18T04:13:03.024Z,33.33
2019-02-18T04:15:06.059Z,29.57
2019-02-18T04:17:07.789Z,33.10
2019-02-18T04:19:09.578Z,37.30
2019-02-18T04:21:11.411Z,32.83
2019-02-18T04:23:13.190Z,34.30
2019-02-18T04:25:14.940Z,52.40
2019-02-18T04:27:16.778Z,32.45
2019-02-18T04:29:18.517Z,34.13
2019-02-18T04:31:20.358Z,34.48
2019-02-18T04:33:22.094Z,28.10
2019-02-18T04:35:23.797Z,33.10
2019-02-18T04:37:25.500Z,35.73
2019-02-18T04:39:27.652Z,37.03
2019-02-18T04:41:29.361Z,39.15
2019-02-18T04:43:31.669Z,29.75
2019-02-18T04:45:33.369Z,32.23
2019-02-18T04:47:35.065Z,32.67
2019-02-18T04:49:36.800Z,32.03
2019-02-18T04:51:38.568Z,31.82
2019-02-18T04:53:40.301Z,29.98
2019-02-18T04:55:42.279Z,32.45
2019-02-18T04:57:44.021Z,32.98
2019-02-18T04:59:46.579Z,37.73
2019-02-18T05:01:48.402Z,34.43
2019-02-18T05:03:50.093Z,32.73
2019-02-18T05:05:51.804Z,32.78
2019-02-18T05:07:53.621Z,34.27
2019-02-18T05:09:55.354Z,34.20
2019-02-18T05:11:57.048Z,36.08
2019-02-18T05:13:58.786Z,33.83
2019-02-18T05:16:00.551Z,33.75
2019-02-18T05:18:02.358Z,30.45
2019-02-18T05:20:04.392Z,29.02
2019-02-18T05:22:06.123Z,30.80
2019-02-18T05:24:07.830Z,30.68
2019-02-18T05:26:09.537Z,31.05
2019-02-18T05:33:04.804Z,34.27
2019-02-18T05:35:06.722Z,34.53
2019-02-18T05:37:08.544Z,31.33
2019-02-18T05:39:17.972Z,33.48
2019-02-18T05:41:13.949Z,28.47
2019-02-18T05:43:15.697Z,33.45
2019-02-18T05:45:17.385Z,34.00
2019-02-18T05:47:19.103Z,32.40
2019-02-18T05:49:20.851Z,31.60
2019-02-18T05:51:22.530Z,33.92
2019-02-18T05:53:24.235Z,32.80
2019-02-18T05:55:26.057Z,33.02
2019-02-18T05:57:27.781Z,33.08
2019-02-18T05:59:29.656Z,36.17
2019-02-18T06:01:31.404Z,33.75
2019-02-18T06:03:33.105Z,32.23
2019-02-18T06:05:34.797Z,28.15
2019-02-18T06:07:36.517Z,33.13
2019-02-18T06:09:38.766Z,30.37
2019-02-18T06:11:40.490Z,33.13
2019-02-18T06:13:42.205Z,31.02
2019-02-18T06:15:43.897Z,34.27
2019-02-18T06:17:45.623Z,31.15
2019-02-18T06:19:47.305Z,30.45
2019-02-18T06:21:49.065Z,31.10
2019-02-18T06:23:50.741Z,28.17
2019-02-18T06:25:52.462Z,30.27
2019-02-18T06:27:54.218Z,29.07
2019-02-18T06:29:56.073Z,36.85
2019-02-18T06:31:57.757Z,29.15
2019-02-18T06:33:59.469Z,28.87
2019-02-18T06:36:01.172Z,28.07
2019-02-18T06:38:02.889Z,32.13
2019-02-18T06:40:05.643Z,33.18
2019-02-18T06:42:07.657Z,28.67
2019-02-18T06:44:09.369Z,29.35
2019-02-18T06:46:30.090Z,30.62
2019-02-18T06:48:33.553Z,29.72
2019-02-18T06:50:35.256Z,30.15
2019-02-18T06:52:37.049Z,31.75
2019-02-18T06:54:38.837Z,31.35
2019-02-18T06:57:09.394Z,28.35
2019-02-18T06:59:23.217Z,30.90
2019-02-18T07:01:38.976Z,30.52
2019-02-18T07:04:03.488Z,27.07
2019-02-18T07:06:09.735Z,27.87
2019-02-18T07:08:20.474Z,30.95
2019-02-18T07:10:40.240Z,28.92
2019-02-18T07:12:45.418Z,27.17
2019-02-18T07:14:47.141Z,30.40
2019-02-18T07:16:48.872Z,28.73
2019-02-18T07:18:50.621Z,30.37
2019-02-18T07:20:52.353Z,28.87
2019-02-18T07:22:54.237Z,28.60
2019-02-18T07:24:55.969Z,27.17
2019-02-18T07:26:57.999Z,29.90
2019-02-18T07:28:59.711Z,29.20
2019-02-18T07:31:01.565Z,30.70
2019-02-18T07:33:03.492Z,31.93
2019-02-18T07:35:05.393Z,31.75
2019-02-18T07:37:07.107Z,28.35
2019-02-18T07:39:08.807Z,28.90
2019-02-18T07:41:10.508Z,33.60
2019-02-18T07:43:12.353Z,31.20
2019-02-18T07:45:14.069Z,29.25
2019-02-18T07:47:15.812Z,30.62
2019-02-18T07:49:17.549Z,29.10
2019-02-18T07:51:19.244Z,28.10
2019-02-18T07:53:20.977Z,27.45
2019-02-18T07:55:22.702Z,27.32
2019-02-18T07:57:24.429Z,26.17
2019-02-18T07:59:26.125Z,28.20
2019-02-18T08:01:27.823Z,34.00
2019-02-18T08:03:29.549Z,32.60
2019-02-18T08:05:31.261Z,26.40
2019-02-18T08:07:32.969Z,31.82
2019-02-18T08:09:34.689Z,31.30
2019-02-18T08:11:36.403Z,30.37
2019-02-18T08:13:38.226Z,31.40
2019-02-18T08:15:39.938Z,33.90
2019-02-18T08:17:41.646Z,33.33
2019-02-18T08:19:43.357Z,29.35
2019-02-18T08:21:45.097Z,32.80
2019-02-18T08:23:46.820Z,29.90
2019-02-18T08:25:48.538Z,32.78
2019-02-18T08:27:50.353Z,28.50
2019-02-18T08:29:52.049Z,29.67
2019-02-18T08:31:53.761Z,30.40
2019-02-18T08:33:55.454Z,31.53
2019-02-18T08:35:57.177Z,30.80
2019-02-18T08:37:58.872Z,31.37
2019-02-18T08:40:00.669Z,32.80
2019-02-18T08:42:02.721Z,27.77
2019-02-18T08:44:04.536Z,33.57
2019-02-18T08:46:06.229Z,36.30
2019-02-18T08:48:07.932Z,32.47
2019-02-18T08:50:09.991Z,46.80
2019-02-18T08:52:11.982Z,29.43
2019-02-18T08:54:13.680Z,30.20
2019-02-18T08:56:15.360Z,28.27
2019-02-18T08:58:17.081Z,30.93
2019-02-18T09:00:18.794Z,31.50
2019-02-18T09:02:20.484Z,42.00
2019-02-18T09:04:22.476Z,27.63
2019-02-18T09:06:24.201Z,27.57
2019-02-18T09:08:25.889Z,29.50
2019-02-18T09:10:33.490Z,31.20
2019-02-18T09:12:31.376Z,28.80
2019-02-18T09:14:33.072Z,28.83
2019-02-18T09:16:34.795Z,33.90
2019-02-18T09:18:36.499Z,28.50
2019-02-18T09:20:38.512Z,25.20
2019-02-18T09:22:52.413Z,25.73
2019-02-18T09:25:00.444Z,26.63
2019-02-18T09:27:02.454Z,29.17
2019-02-18T09:29:04.269Z,30.50
2019-02-18T09:31:06.039Z,29.77
2019-02-18T09:33:07.837Z,24.73
2019-02-18T09:35:09.779Z,28.03
2019-02-18T09:37:11.741Z,27.53
2019-02-18T09:39:29.986Z,28.60
2019-02-18T09:41:22.489Z,22.63
2019-02-18T09:43:24.202Z,31.50
2019-02-18T09:45:25.988Z,27.83
2019-02-18T09:47:28.091Z,26.07
2019-02-18T09:49:29.774Z,25.40
2019-02-18T09:51:31.491Z,21.30
2019-02-18T09:53:33.288Z,24.93
2019-02-18T09:55:35.044Z,22.60
2019-02-18T09:57:36.761Z,23.77
2019-02-18T09:59:38.472Z,24.83
2019-02-18T10:01:40.228Z,23.23
2019-02-18T10:03:42.221Z,28.10
2019-02-18T10:05:44.016Z,23.80
2019-02-18T10:07:45.771Z,23.50
2019-02-18T10:09:47.445Z,22.53
2019-02-18T10:11:49.180Z,30.30
2019-02-18T10:13:50.885Z,22.93
2019-02-18T10:15:52.579Z,23.83
2019-02-18T10:17:54.273Z,24.73
2019-02-18T10:19:55.989Z,29.70
2019-02-18T10:21:57.682Z,23.53
2019-02-18T10:23:59.414Z,23.10
2019-02-18T10:26:01.116Z,20.83
2019-02-18T10:28:03.009Z,19.33
2019-02-18T10:30:05.044Z,24.50
2019-02-18T10:32:26.440Z,25.93
2019-02-18T10:34:28.144Z,25.20
2019-02-18T10:36:29.865Z,27.67
2019-02-18T10:38:31.842Z,30.73
2019-02-18T10:40:33.758Z,25.63
2019-02-18T10:42:35.557Z,23.17
2019-02-18T10:44:37.278Z,22.53
2019-02-18T10:46:40.693Z,23.30
2019-02-18T10:48:42.708Z,23.43
2019-02-18T10:50:44.569Z,20.87
2019-02-18T10:52:46.291Z,23.20
2019-02-18T10:54:49.636Z,22.40
2019-02-18T10:56:51.514Z,24.33
2019-02-18T10:58:53.449Z,26.17
2019-02-18T11:00:55.265Z,29.33
2019-02-18T11:02:57.184Z,22.40
2019-02-18T11:04:59.007Z,19.63
2019-02-18T11:07:00.767Z,27.27
2019-02-18T11:09:04.412Z,17.17
2019-02-18T11:11:14.592Z,25.70
2019-02-18T11:13:09.794Z,24.70
2019-02-18T11:15:11.769Z,22.90
2019-02-18T11:17:13.578Z,24.07
2019-02-18T11:19:17.508Z,26.63
2019-02-18T11:21:18.975Z,26.43
2019-02-18T11:23:20.800Z,22.27
2019-02-18T11:25:22.513Z,24.03
2019-02-18T11:27:24.245Z,27.80
2019-02-18T11:29:26.058Z,23.10
2019-02-18T11:31:27.890Z,22.10
2019-02-18T11:33:29.816Z,26.43
2019-02-18T11:35:32.032Z,22.40
2019-02-18T11:37:33.749Z,20.90
2019-02-18T11:39:35.469Z,19.80
2019-02-18T11:41:37.214Z,23.93
2019-02-18T11:43:38.988Z,21.90
2019-02-18T11:45:40.783Z,21.90
2019-02-18T11:47:42.681Z,25.00
2019-02-18T11:49:44.388Z,23.37
2019-02-18T11:51:46.100Z,21.53
2019-02-18T11:53:48.265Z,22.03
2019-02-18T11:55:50.235Z,33.53
2019-02-18T11:57:52.169Z,24.63
2019-02-18T11:59:53.943Z,23.43
2019-02-18T12:01:55.776Z,25.10
2019-02-18T12:03:57.485Z,26.40
2019-02-18T12:05:59.482Z,25.10
2019-02-18T12:08:01.268Z,20.80
2019-02-18T12:10:03.326Z,24.30
2019-02-18T12:12:05.225Z,20.63
2019-02-18T12:14:07.212Z,23.90
2019-02-18T12:16:09.069Z,24.73
2019-02-18T12:18:10.882Z,23.43
2019-02-18T12:20:12.810Z,21.00
2019-02-18T12:22:14.754Z,22.60
2019-02-18T12:24:16.702Z,24.70
2019-02-18T12:26:18.453Z,21.43
2019-02-18T12:28:20.779Z,19.83
2019-02-18T12:30:22.611Z,22.27
2019-02-18T12:32:24.418Z,23.67
2019-02-18T12:34:26.189Z,21.70
2019-02-18T12:36:28.301Z,23.13
2019-02-18T12:38:30.171Z,25.60
2019-02-18T12:40:31.902Z,21.60
2019-02-18T12:42:33.813Z,22.10
2019-02-18T12:44:35.649Z,29.67
2019-02-18T12:46:37.618Z,23.27
2019-02-18T12:48:39.490Z,23.77
2019-02-18T12:50:41.497Z,23.60
2019-02-18T12:52:43.318Z,35.97
2019-02-18T12:54:45.708Z,26.67
2019-02-18T12:56:47.866Z,21.80
2019-02-18T12:58:54.691Z,27.30
2019-02-18T13:00:53.639Z,22.80
2019-02-18T13:02:56.041Z,24.97
2019-02-18T13:04:57.881Z,23.97
2019-02-18T13:06:59.834Z,22.30
2019-02-18T13:09:02.589Z,24.93
2019-02-18T13:11:05.991Z,25.07
2019-02-18T13:13:07.782Z,25.43
2019-02-18T13:15:10.336Z,24.40
2019-02-18T13:17:12.264Z,25.10
2019-02-18T13:19:14.273Z,27.90
2019-02-18T13:21:16.005Z,28.17
2019-02-18T13:23:17.729Z,28.53
2019-02-18T13:25:19.585Z,26.97
2019-02-18T13:27:21.638Z,25.57
2019-02-18T13:29:23.545Z,25.57
2019-02-18T13:31:25.345Z,24.03
2019-02-18T13:33:27.205Z,24.60
2019-02-18T13:35:29.105Z,27.70
2019-02-18T13:37:30.861Z,24.17
2019-02-18T13:39:32.546Z,27.13
2019-02-18T13:41:34.284Z,23.47
2019-02-18T13:43:36.100Z,25.30
2019-02-18T13:45:37.804Z,23.47
2019-02-18T13:47:39.567Z,26.27
2019-02-18T13:49:42.081Z,26.97
2019-02-18T13:51:44.055Z,25.23
2019-02-18T13:53:46.297Z,21.77
2019-02-18T13:55:48.112Z,23.07
2019-02-18T13:57:49.838Z,22.47
2019-02-18T13:59:51.728Z,23.03
2019-02-18T14:01:53.550Z,20.70
2019-02-18T14:03:55.257Z,25.33
2019-02-18T14:05:57.073Z,23.00
2019-02-18T14:07:58.885Z,20.00
2019-02-18T14:10:00.716Z,25.80
2019-02-18T14:12:02.776Z,21.80
2019-02-18T14:14:04.603Z,22.33
2019-02-18T14:16:06.406Z,21.00
2019-02-18T14:18:08.116Z,23.03
2019-02-18T14:20:11.186Z,24.53
2019-02-18T14:22:13.247Z,20.53
2019-02-18T14:24:15.069Z,21.77
2019-02-18T14:26:16.874Z,21.40
2019-02-18T14:28:18.644Z,23.47
2019-02-18T14:30:21.175Z,22.47
2019-02-18T14:32:22.970Z,21.80
2019-02-18T14:34:24.689Z,20.57
2019-02-18T14:36:26.640Z,21.23
2019-02-18T14:38:29.289Z,23.97
2019-02-18T14:40:31.097Z,23.47
2019-02-18T14:42:33.141Z,27.17
2019-02-18T14:44:34.973Z,21.80
2019-02-18T14:46:37.192Z,23.60
2019-02-18T14:48:39.110Z,24.40
2019-02-18T14:50:41.658Z,22.80
2019-02-18T14:52:43.600Z,21.70
2019-02-18T14:54:45.409Z,24.83
2019-02-18T14:56:47.136Z,21.00
2019-02-18T14:58:49.056Z,20.87
2019-02-18T15:00:51.004Z,22.20
2019-02-18T15:02:54.220Z,22.43
2019-02-18T15:04:56.361Z,22.40
2019-02-18T15:06:58.177Z,23.67
2019-02-18T15:09:00.013Z,21.17
2019-02-18T15:11:02.238Z,22.63
2019-02-18T15:13:04.265Z,22.80
2019-02-18T15:15:06.194Z,22.07
2019-02-18T15:17:08.045Z,22.83
2019-02-18T15:19:09.761Z,22.50
2019-02-18T15:21:11.591Z,23.00
2019-02-18T15:23:13.320Z,22.03
2019-02-18T15:25:15.234Z,23.83
2019-02-18T15:27:16.937Z,21.03
2019-02-18T15:29:19.121Z,23.07
2019-02-18T15:31:21.355Z,26.20
2019-02-18T15:33:23.148Z,24.80
2019-02-18T15:35:24.871Z,23.40
2019-02-18T15:37:26.657Z,19.67
2019-02-18T15:39:28.581Z,20.80
2019-02-18T15:41:30.309Z,23.63
2019-02-18T15:43:32.982Z,22.70
2019-02-18T15:45:34.993Z,23.77
2019-02-18T15:47:36.929Z,21.87
2019-02-18T15:49:38.621Z,24.47
2019-02-18T15:51:40.349Z,21.70
2019-02-18T15:53:42.068Z,22.00
2019-02-18T15:55:43.912Z,21.40
2019-02-18T15:57:46.036Z,23.30
2019-02-18T15:59:47.841Z,26.00
2019-02-18T16:01:49.665Z,21.47
2019-02-18T16:03:51.400Z,22.17
2019-02-18T16:05:53.168Z,25.10
2019-02-18T16:07:54.880Z,22.83
2019-02-18T16:09:56.617Z,24.57
2019-02-18T16:11:59.334Z,24.63
2019-02-18T16:14:01.133Z,24.47
2019-02-18T16:16:03.200Z,26.50
2019-02-18T16:18:05.429Z,24.17
2019-02-18T16:20:08.238Z,22.07
2019-02-18T16:22:09.979Z,23.97
2019-02-18T16:24:19.647Z,23.97
2019-02-18T16:26:15.676Z,23.70
2019-02-18T16:28:17.429Z,28.13
2019-02-18T16:30:19.354Z,26.47
2019-02-18T16:32:21.404Z,24.73
2019-02-18T16:34:23.105Z,28.73
2019-02-18T16:36:24.793Z,29.97
2019-02-18T16:38:26.980Z,30.03
2019-02-18T16:40:28.716Z,24.17
2019-02-18T16:42:30.505Z,26.87
2019-02-18T16:44:32.611Z,24.37
2019-02-18T16:46:34.777Z,27.40
2019-02-18T16:48:36.777Z,24.50
2019-02-18T16:50:38.596Z,27.07
2019-02-18T16:52:40.520Z,24.30
2019-02-18T16:54:42.208Z,26.13
2019-02-18T16:56:44.101Z,26.47
2019-02-18T16:58:45.806Z,26.97
2019-02-18T17:00:47.500Z,28.13
2019-02-18T17:02:50.925Z,28.03
2019-02-18T17:04:52.904Z,27.43
2019-02-18T17:06:54.707Z,36.17
2019-02-18T17:08:56.713Z,29.23
2019-02-18T17:10:58.422Z,28.13
2019-02-18T17:13:07.950Z,27.10
2019-02-18T17:15:03.967Z,25.93
2019-02-18T17:17:05.660Z,27.67
2019-02-18T17:19:07.377Z,31.20
2019-02-18T17:21:09.133Z,29.30
2019-02-18T17:23:10.837Z,28.83
2019-02-18T17:25:12.857Z,28.30
2019-02-18T17:27:14.652Z,26.57
2019-02-18T17:29:16.373Z,29.43
2019-02-18T17:31:18.097Z,32.07
2019-02-18T17:33:19.790Z,30.60
2019-02-18T17:35:21.883Z,30.00
2019-02-18T17:37:23.976Z,29.33
2019-02-18T17:39:25.664Z,29.47
2019-02-18T17:41:27.454Z,27.80
2019-02-18T17:43:29.290Z,27.03
2019-02-18T17:45:31.078Z,26.77
2019-02-18T17:47:33.683Z,24.00
2019-02-18T17:49:35.587Z,25.87
2019-02-18T17:51:37.289Z,27.80
2019-02-18T17:53:38.994Z,25.00
2019-02-18T17:55:40.758Z,30.57
2019-02-18T17:57:42.560Z,25.13
2019-02-18T17:59:44.241Z,23.37
2019-02-18T18:01:46.689Z,23.83
2019-02-18T18:03:48.410Z,24.23
2019-02-18T18:05:50.228Z,25.93
2019-02-18T18:07:52.301Z,28.20
2019-02-18T18:09:56.860Z,25.27
2019-02-18T18:11:58.557Z,28.30
2019-02-18T18:14:00.633Z,24.57
2019-02-18T18:16:02.330Z,24.10
2019-02-18T18:18:04.352Z,24.10
2019-02-18T18:20:07.863Z,28.27
2019-02-18T18:22:09.684Z,28.20
2019-02-18T18:24:11.426Z,28.33
2019-02-18T18:26:13.251Z,28.03
2019-02-18T18:28:15.567Z,27.37
2019-02-18T18:30:17.397Z,26.50
2019-02-18T18:32:19.392Z,28.20
2019-02-18T18:34:21.118Z,27.67
2019-02-18T18:36:22.853Z,25.57
2019-02-18T18:38:24.721Z,26.83
2019-02-18T18:40:26.418Z,26.40
2019-02-18T18:42:28.458Z,26.73
2019-02-18T18:44:30.148Z,27.03
2019-02-18T18:46:32.269Z,28.33
2019-02-18T18:48:37.439Z,28.93
2019-02-18T18:50:39.346Z,28.43
2019-02-18T18:52:41.077Z,28.33
2019-02-18T18:54:43.025Z,29.20
2019-02-18T18:56:44.849Z,29.20
2019-02-18T18:58:46.638Z,24.90
2019-02-18T19:00:48.439Z,28.40
2019-02-18T19:02:50.448Z,26.80
2019-02-18T19:04:52.708Z,26.40
2019-02-18T19:06:54.490Z,26.30
2019-02-18T19:08:56.208Z,25.00
2019-02-18T19:10:57.926Z,28.83
2019-02-18T19:12:59.621Z,29.47
2019-02-18T19:15:01.679Z,30.50
2019-02-18T19:17:03.444Z,26.53
2019-02-18T19:19:05.520Z,28.83
2019-02-18T19:21:07.308Z,26.47
2019-02-18T19:23:09.552Z,27.27
2019-02-18T19:25:12.065Z,29.43
2019-02-18T19:27:14.127Z,28.93
2019-02-18T19:29:15.927Z,29.60
2019-02-18T19:31:18.198Z,31.63
2019-02-18T19:33:20.169Z,28.03
2019-02-18T19:35:23.979Z,25.50
2019-02-18T19:37:26.275Z,24.20
2019-02-18T19:39:27.970Z,31.40
2019-02-18T19:41:29.958Z,28.30
2019-02-18T19:43:31.697Z,26.93
2019-02-18T19:45:33.441Z,27.40
2019-02-18T19:47:35.156Z,25.00
2019-02-18T19:49:36.909Z,26.50
2019-02-18T19:51:38.750Z,23.50
2019-02-18T19:53:40.447Z,27.93
2019-02-18T19:55:42.667Z,24.27
2019-02-18T19:57:44.548Z,26.60
2019-02-18T19:59:46.361Z,30.67
2019-02-18T20:01:48.313Z,30.27
2019-02-18T20:03:50.239Z,27.07
2019-02-18T20:05:51.929Z,24.80
2019-02-18T20:07:53.975Z,29.10
2019-02-18T20:09:55.769Z,25.03
2019-02-18T20:11:57.461Z,26.93
2019-02-18T20:13:59.216Z,25.60
2019-02-18T20:16:01.274Z,25.90
2019-02-18T20:18:03.301Z,25.97
2019-02-18T20:20:05.792Z,25.53
2019-02-18T20:22:07.834Z,27.00
2019-02-18T20:24:09.550Z,30.80
2019-02-18T20:26:12.025Z,25.97
2019-02-18T20:28:13.741Z,28.20
2019-02-18T20:30:15.553Z,24.97
2019-02-18T20:32:17.341Z,26.27
2019-02-18T20:34:19.265Z,33.93
2019-02-18T20:36:20.977Z,31.80
2019-02-18T20:38:22.839Z,29.50
2019-02-18T20:40:24.533Z,26.17
2019-02-18T20:42:26.246Z,25.97
2019-02-18T20:44:30.306Z,27.20
2019-02-18T20:46:32.006Z,32.60
2019-02-18T20:48:33.717Z,29.90
2019-02-18T20:50:35.471Z,27.40
2019-02-18T20:52:37.257Z,31.63
2019-02-18T20:54:38.968Z,28.00
2019-02-18T20:56:40.898Z,26.70
2019-02-18T20:58:42.592Z,31.80
2019-02-18T21:00:44.302Z,30.80
2019-02-18T21:02:46.136Z,29.17
2019-02-18T21:04:48.017Z,27.93
2019-02-18T21:06:49.825Z,32.00
2019-02-18T21:08:51.560Z,33.37
2019-02-18T21:10:53.673Z,30.60
2019-02-18T21:12:55.375Z,32.40
2019-02-18T21:14:57.117Z,30.77
2019-02-18T21:16:58.837Z,25.70
2019-02-18T21:19:00.533Z,29.17
2019-02-18T21:21:02.289Z,26.83
2019-02-18T21:23:04.147Z,29.77
2019-02-18T21:25:06.226Z,26.70
2019-02-18T21:27:07.996Z,29.53
2019-02-18T21:29:09.707Z,28.63
2019-02-18T21:31:11.687Z,32.13
2019-02-18T21:33:13.397Z,30.73
2019-02-18T21:35:18.388Z,29.73
2019-02-18T21:37:20.088Z,30.80
2019-02-18T21:39:21.917Z,28.10
2019-02-18T21:41:23.676Z,29.43
2019-02-18T21:43:25.373Z,31.70
2019-02-18T21:45:27.202Z,28.20
2019-02-18T21:47:28.893Z,32.00
2019-02-18T21:49:30.601Z,28.13
2019-02-18T21:51:32.341Z,26.33
2019-02-18T21:53:34.142Z,34.20
2019-02-18T21:55:36.263Z,24.77
2019-02-18T21:57:38.090Z,26.80
2019-02-18T21:59:40.101Z,24.37
2019-02-18T22:01:42.129Z,28.17
2019-02-18T22:03:44.051Z,27.83
2019-02-18T22:05:45.741Z,29.87
2019-02-18T22:07:47.431Z,24.60
2019-02-18T22:09:49.121Z,25.97
2019-02-18T22:11:50.858Z,27.03
2019-02-18T22:13:52.548Z,24.07
2019-02-18T22:15:54.259Z,26.07
2019-02-18T22:17:56.337Z,27.40
2019-02-18T22:19:58.061Z,22.13
2019-02-18T22:21:59.762Z,29.57
2019-02-18T22:24:01.494Z,26.27
2019-02-18T22:26:03.288Z,34.20
2019-02-18T22:28:05.004Z,29.70
2019-02-18T22:30:08.464Z,26.80
2019-02-18T22:32:10.333Z,25.43
2019-02-18T22:34:12.117Z,28.20
2019-02-18T22:36:14.034Z,25.20
2019-02-18T22:38:16.189Z,24.80
2019-02-18T22:40:18.033Z,29.00
2019-02-18T22:42:19.793Z,25.83
2019-02-18T22:44:21.622Z,26.90
2019-02-18T22:46:23.804Z,27.77
2019-02-18T22:48:25.673Z,26.90
2019-02-18T22:50:27.404Z,28.90
2019-02-18T22:52:29.241Z,29.77
2019-02-18T22:54:31.259Z,25.53
2019-02-18T22:56:33.014Z,28.23
2019-02-18T22:58:34.881Z,27.00
2019-02-18T23:00:58.356Z,24.80
2019-02-18T23:03:00.211Z,25.63
2019-02-18T23:05:02.118Z,27.27
2019-02-18T23:07:04.489Z,28.33
2019-02-18T23:09:10.024Z,27.93
2019-02-18T23:11:11.875Z,26.53
2019-02-18T23:13:13.999Z,29.13
2019-02-18T23:15:15.796Z,27.07
2019-02-18T23:17:17.577Z,27.50
2019-02-18T23:19:19.404Z,28.40
2019-02-18T23:21:21.249Z,28.10
2019-02-18T23:23:23.259Z,28.70
2019-02-18T23:25:25.009Z,25.90
2019-02-18T23:27:26.751Z,27.10
2019-02-18T23:29:29.229Z,25.87
2019-02-18T23:31:31.128Z,25.00
2019-02-18T23:33:33.081Z,25.90
2019-02-18T23:35:34.826Z,25.53
2019-02-18T23:37:36.550Z,25.27
2019-02-18T23:39:38.346Z,25.67
2019-02-18T23:41:40.191Z,24.20
2019-02-18T23:43:41.929Z,25.93
2019-02-18T23:45:43.780Z,26.33
2019-02-18T23:47:45.520Z,26.70
2019-02-18T23:49:47.256Z,28.23
2019-02-18T23:51:49.214Z,32.23
2019-02-18T23:53:50.943Z,26.77
2019-02-18T23:55:52.676Z,24.73
2019-02-18T23:57:54.440Z,27.00
2019-02-18T23:59:56.184Z,26.80
